New Bern, North Carolina
Current Conditions -  °F | °C
As of 8:54 PM on Saturday 22 Nov 2014 (Local Time) from KEWN Reporting Station
Clear Clear  
Wind Chill: 40°   Ceiling: Unl
Heat Index: 40°   Visibility: 10mi
Dew Point: 35°   Wind: 0mph
Humidity: 83%   Direction: NA
Pressure: 30.39"   Gusts: NA
Location:  35.11°N, 77.04°W
Report Text: KEWN 230154Z 00000KT 10SM CLR 04/02 A3039 RMK AO2 SLP292 T00440017
Loading
Personal Weather Stations






























Interactive Weather Map New forecast layout! Learn more

10-Day Weather Forecast

Advertisements
Track Severe Weather on mobile